DLH1MM EDDF-EDDS
Flight info
| Callsign | DLH1MM |
|---|---|
| Flight time | 0h 23m |
| Altitude | 13000 |
| Route | ANEKI2L/18 ANEKI Y163 NEKLO Y171 INKAM N850 KRH T128 BADSO BADSO2A |
| Aircraft | A21N/M-SDE2E3FGHIRWXY/LB1 |
Departure
| Time | 2026-05-07 09:30 |
|---|---|
| Airport | Frankfurt Main Airport (EDDF) |
Arrival
| Time | 2026-05-07 09:54 |
|---|---|
| Airport | Stuttgart Airport (EDDS) |
| Time | Latitude | Longitude | Altitude | Speed | Heading |
|---|---|---|---|---|---|
| 2026-05-07 08:32 | 50.04579 | 8.56624 | 361 ft | 0 kts | 115° |
| 2026-05-07 09:19 | 50.04589 | 8.56591 | 367 ft | 4 kts | 115° |
| 2026-05-07 09:20 | 50.04601 | 8.56554 | 364 ft | 4 kts | 118° |
| 2026-05-07 09:20 | 50.04615 | 8.56519 | 361 ft | 4 kts | 133° |
| 2026-05-07 09:20 | 50.04633 | 8.56500 | 361 ft | 4 kts | 189° |
| 2026-05-07 09:20 | 50.04627 | 8.56494 | 366 ft | 4 kts | 204° |
| 2026-05-07 09:21 | 50.04602 | 8.56476 | 361 ft | 4 kts | 204° |
| 2026-05-07 09:21 | 50.04582 | 8.56462 | 361 ft | 0 kts | 205° |
| 2026-05-07 09:23 | 50.04580 | 8.56460 | 361 ft | 1 kts | 205° |
| 2026-05-07 09:23 | 50.04564 | 8.56449 | 364 ft | 4 kts | 205° |
| 2026-05-07 09:23 | 50.04530 | 8.56420 | 367 ft | 7 kts | 223° |
| 2026-05-07 09:24 | 50.04508 | 8.56347 | 365 ft | 8 kts | 249° |
| 2026-05-07 09:24 | 50.04485 | 8.56254 | 363 ft | 10 kts | 249° |
| 2026-05-07 09:24 | 50.04457 | 8.56140 | 362 ft | 12 kts | 249° |
| 2026-05-07 09:24 | 50.04407 | 8.56031 | 362 ft | 14 kts | 191° |
| 2026-05-07 09:25 | 50.04310 | 8.56071 | 364 ft | 15 kts | 174° |
| 2026-05-07 09:25 | 50.04244 | 8.55957 | 364 ft | 16 kts | 250° |
| 2026-05-07 09:25 | 50.04203 | 8.55785 | 359 ft | 18 kts | 249° |
| 2026-05-07 09:25 | 50.04159 | 8.55602 | 361 ft | 19 kts | 249° |
| 2026-05-07 09:26 | 50.04111 | 8.55404 | 359 ft | 20 kts | 250° |
| 2026-05-07 09:26 | 50.04061 | 8.55192 | 362 ft | 22 kts | 250° |
| 2026-05-07 09:26 | 50.04007 | 8.54966 | 364 ft | 23 kts | 249° |
| 2026-05-07 09:26 | 50.03950 | 8.54730 | 357 ft | 24 kts | 249° |
| 2026-05-07 09:27 | 50.03891 | 8.54483 | 357 ft | 25 kts | 250° |
| 2026-05-07 09:27 | 50.03806 | 8.54244 | 352 ft | 26 kts | 245° |
| 2026-05-07 09:27 | 50.03678 | 8.53708 | 353 ft | 24 kts | 249° |
| 2026-05-07 09:28 | 50.03616 | 8.53464 | 349 ft | 25 kts | 249° |
| 2026-05-07 09:28 | 50.03555 | 8.53208 | 346 ft | 26 kts | 250° |
| 2026-05-07 09:28 | 50.03506 | 8.53002 | 352 ft | 15 kts | 250° |
| 2026-05-07 09:28 | 50.03476 | 8.52883 | 347 ft | 9 kts | 248° |
| 2026-05-07 09:29 | 50.03449 | 8.52783 | 342 ft | 11 kts | 247° |
| 2026-05-07 09:29 | 50.03418 | 8.52668 | 340 ft | 12 kts | 247° |
| 2026-05-07 09:29 | 50.03387 | 8.52603 | 338 ft | 8 kts | 207° |
| 2026-05-07 09:29 | 50.03259 | 8.52594 | 337 ft | 46 kts | 180° |
| 2026-05-07 09:30 | 50.02719 | 8.52599 | 341 ft | 109 kts | 179° |
| 2026-05-07 09:30 | 50.01782 | 8.52609 | 339 ft | 158 kts | 180° |
| 2026-05-07 09:30 | 50.00579 | 8.52630 | 590 ft | 175 kts | 182° |
| 2026-05-07 09:30 | 49.99351 | 8.52683 | 1123 ft | 180 kts | 179° |
| 2026-05-07 09:31 | 49.98078 | 8.52791 | 1678 ft | 186 kts | 180° |
| 2026-05-07 09:31 | 49.96754 | 8.52885 | 2169 ft | 195 kts | 179° |
| 2026-05-07 09:31 | 49.95353 | 8.52981 | 2809 ft | 207 kts | 179° |
| 2026-05-07 09:31 | 49.93868 | 8.53083 | 3484 ft | 221 kts | 178° |
| 2026-05-07 09:32 | 49.92280 | 8.53191 | 4145 ft | 236 kts | 178° |
| 2026-05-07 09:32 | 49.90601 | 8.53306 | 4965 ft | 244 kts | 178° |
| 2026-05-07 09:32 | 49.88913 | 8.53422 | 5887 ft | 248 kts | 178° |
| 2026-05-07 09:32 | 49.87172 | 8.53542 | 6766 ft | 252 kts | 178° |
| 2026-05-07 09:33 | 49.85415 | 8.53663 | 7637 ft | 254 kts | 179° |
| 2026-05-07 09:33 | 49.83633 | 8.53785 | 8518 ft | 257 kts | 180° |
| 2026-05-07 09:33 | 49.81840 | 8.53906 | 9383 ft | 259 kts | 180° |
| 2026-05-07 09:33 | 49.80027 | 8.54029 | 10218 ft | 262 kts | 181° |
| 2026-05-07 09:34 | 49.78195 | 8.54121 | 10995 ft | 264 kts | 184° |
| 2026-05-07 09:34 | 49.76309 | 8.53952 | 11467 ft | 282 kts | 187° |
| 2026-05-07 09:34 | 49.74276 | 8.53674 | 11790 ft | 304 kts | 187° |
| 2026-05-07 09:34 | 49.72090 | 8.53372 | 12099 ft | 326 kts | 187° |
| 2026-05-07 09:35 | 49.69787 | 8.53062 | 12504 ft | 343 kts | 187° |
| 2026-05-07 09:35 | 49.67352 | 8.52741 | 13230 ft | 350 kts | 186° |
| 2026-05-07 09:35 | 49.64910 | 8.52419 | 13993 ft | 354 kts | 186° |
| 2026-05-07 09:35 | 49.62470 | 8.52098 | 14692 ft | 358 kts | 186° |
| 2026-05-07 09:36 | 49.59975 | 8.51772 | 15398 ft | 362 kts | 186° |
| 2026-05-07 09:36 | 49.57447 | 8.51440 | 16099 ft | 366 kts | 186° |
| 2026-05-07 09:36 | 49.54891 | 8.51104 | 16708 ft | 370 kts | 186° |
| 2026-05-07 09:36 | 49.52319 | 8.50765 | 16959 ft | 372 kts | 186° |
| 2026-05-07 09:37 | 49.49763 | 8.50433 | 17035 ft | 367 kts | 186° |
| 2026-05-07 09:37 | 49.47215 | 8.50361 | 17030 ft | 368 kts | 174° |
| 2026-05-07 09:37 | 49.44760 | 8.51489 | 17023 ft | 371 kts | 154° |
| 2026-05-07 09:37 | 49.42658 | 8.53781 | 17023 ft | 372 kts | 137° |
| 2026-05-07 09:38 | 49.40879 | 8.56605 | 17031 ft | 371 kts | 133° |
| 2026-05-07 09:38 | 49.39123 | 8.59509 | 17024 ft | 371 kts | 133° |
| 2026-05-07 09:38 | 49.37349 | 8.62386 | 17021 ft | 371 kts | 134° |
| 2026-05-07 09:38 | 49.35557 | 8.65238 | 17020 ft | 371 kts | 134° |
| 2026-05-07 09:39 | 49.33760 | 8.68077 | 17021 ft | 371 kts | 134° |
| 2026-05-07 09:39 | 49.31957 | 8.70913 | 17020 ft | 370 kts | 135° |
| 2026-05-07 09:39 | 49.30158 | 8.73740 | 17018 ft | 370 kts | 135° |
| 2026-05-07 09:39 | 49.28358 | 8.76562 | 17018 ft | 370 kts | 135° |
| 2026-05-07 09:40 | 49.26555 | 8.79388 | 17014 ft | 370 kts | 135° |
| 2026-05-07 09:40 | 49.24752 | 8.82209 | 17014 ft | 370 kts | 135° |
| 2026-05-07 09:40 | 49.22960 | 8.85011 | 16899 ft | 365 kts | 135° |
| 2026-05-07 09:40 | 49.21177 | 8.87797 | 16208 ft | 367 kts | 135° |
| 2026-05-07 09:41 | 49.19394 | 8.90582 | 15632 ft | 365 kts | 135° |
| 2026-05-07 09:41 | 49.17633 | 8.93331 | 15152 ft | 360 kts | 135° |
| 2026-05-07 09:41 | 49.15900 | 8.96029 | 14530 ft | 361 kts | 135° |
| 2026-05-07 09:41 | 49.14144 | 8.98757 | 14038 ft | 358 kts | 135° |
| 2026-05-07 09:42 | 49.12411 | 9.01446 | 13582 ft | 353 kts | 135° |
| 2026-05-07 09:42 | 49.10698 | 9.04108 | 13033 ft | 350 kts | 135° |
| 2026-05-07 09:42 | 49.09007 | 9.06732 | 12691 ft | 342 kts | 135° |
| 2026-05-07 09:42 | 49.07368 | 9.09275 | 12475 ft | 330 kts | 135° |
| 2026-05-07 09:43 | 49.06916 | 9.09975 | 12432 ft | 326 kts | 135° |
| 2026-05-07 09:43 | 49.05356 | 9.12392 | 12271 ft | 313 kts | 135° |
| 2026-05-07 09:43 | 49.03839 | 9.14743 | 11891 ft | 309 kts | 135° |
| 2026-05-07 09:43 | 49.02339 | 9.17061 | 11396 ft | 306 kts | 136° |
| 2026-05-07 09:44 | 49.00847 | 9.19358 | 10828 ft | 305 kts | 136° |
| 2026-05-07 09:44 | 48.99351 | 9.21656 | 10249 ft | 304 kts | 136° |
| 2026-05-07 09:44 | 48.97869 | 9.23934 | 9778 ft | 300 kts | 136° |
| 2026-05-07 09:44 | 48.96407 | 9.26179 | 9216 ft | 297 kts | 136° |
| 2026-05-07 09:45 | 48.94958 | 9.28407 | 8623 ft | 296 kts | 136° |
| 2026-05-07 09:45 | 48.93515 | 9.30626 | 8065 ft | 294 kts | 136° |
| 2026-05-07 09:45 | 48.92097 | 9.32799 | 7527 ft | 291 kts | 136° |
| 2026-05-07 09:45 | 48.90620 | 9.34877 | 6997 ft | 287 kts | 142° |
| 2026-05-07 09:46 | 48.89070 | 9.36786 | 6447 ft | 286 kts | 143° |
| 2026-05-07 09:46 | 48.87523 | 9.38659 | 5906 ft | 283 kts | 143° |
| 2026-05-07 09:46 | 48.85987 | 9.40523 | 5370 ft | 281 kts | 143° |
| 2026-05-07 09:46 | 48.84477 | 9.42358 | 5042 ft | 276 kts | 143° |
| 2026-05-07 09:47 | 48.82975 | 9.44182 | 4959 ft | 277 kts | 143° |
| 2026-05-07 09:47 | 48.81486 | 9.45993 | 4955 ft | 267 kts | 143° |
| 2026-05-07 09:47 | 48.80091 | 9.47691 | 4948 ft | 249 kts | 143° |
| 2026-05-07 09:47 | 48.78744 | 9.49326 | 4952 ft | 247 kts | 143° |
| 2026-05-07 09:48 | 48.77394 | 9.50922 | 4961 ft | 246 kts | 150° |
| 2026-05-07 09:48 | 48.75848 | 9.51843 | 4963 ft | 240 kts | 175° |
| 2026-05-07 09:48 | 48.74212 | 9.51747 | 4970 ft | 235 kts | 200° |
| 2026-05-07 09:48 | 48.72872 | 9.50461 | 4803 ft | 227 kts | 234° |
| 2026-05-07 09:49 | 48.72325 | 9.48302 | 4467 ft | 220 kts | 270° |
| 2026-05-07 09:49 | 48.72579 | 9.46053 | 4141 ft | 214 kts | 283° |
| 2026-05-07 09:49 | 48.72820 | 9.43858 | 3842 ft | 209 kts | 272° |
| 2026-05-07 09:49 | 48.72720 | 9.41733 | 3564 ft | 193 kts | 260° |
| 2026-05-07 09:50 | 48.72360 | 9.39875 | 3377 ft | 176 kts | 250° |
| 2026-05-07 09:50 | 48.72023 | 9.38188 | 3155 ft | 157 kts | 254° |
| 2026-05-07 09:50 | 48.71740 | 9.36706 | 2924 ft | 137 kts | 255° |
| 2026-05-07 09:50 | 48.71481 | 9.35338 | 2717 ft | 134 kts | 255° |
| 2026-05-07 09:51 | 48.71225 | 9.33980 | 2529 ft | 135 kts | 256° |
| 2026-05-07 09:51 | 48.70966 | 9.32613 | 2351 ft | 136 kts | 256° |
| 2026-05-07 09:51 | 48.70713 | 9.31263 | 2185 ft | 133 kts | 256° |
| 2026-05-07 09:51 | 48.70451 | 9.29917 | 1933 ft | 134 kts | 255° |
| 2026-05-07 09:52 | 48.70182 | 9.28536 | 1806 ft | 140 kts | 255° |
| 2026-05-07 09:52 | 48.69921 | 9.27129 | 1595 ft | 139 kts | 256° |
| 2026-05-07 09:52 | 48.69643 | 9.25719 | 1434 ft | 139 kts | 257° |
| 2026-05-07 09:52 | 48.69385 | 9.24321 | 1271 ft | 136 kts | 256° |
| 2026-05-07 09:53 | 48.69154 | 9.23082 | 1221 ft | 100 kts | 253° |
| 2026-05-07 09:53 | 48.69002 | 9.22263 | 1240 ft | 67 kts | 254° |
| 2026-05-07 09:53 | 48.68887 | 9.21659 | 1260 ft | 52 kts | 255° |
| 2026-05-07 09:53 | 48.68797 | 9.21150 | 1267 ft | 50 kts | 249° |
| 2026-05-07 09:54 | 48.68698 | 9.20667 | 1277 ft | 39 kts | 252° |
| 2026-05-07 09:54 | 48.68673 | 9.20432 | 1280 ft | 34 kts | 274° |
| 2026-05-07 09:54 | 48.68711 | 9.20131 | 1291 ft | 24 kts | 287° |
| 2026-05-07 09:54 | 48.68812 | 9.19924 | 1302 ft | 24 kts | 324° |
| 2026-05-07 09:55 | 48.68890 | 9.19815 | 1310 ft | 15 kts | 259° |
| 2026-05-07 09:55 | 48.68857 | 9.19648 | 1314 ft | 18 kts | 255° |
| 2026-05-07 09:55 | 48.68830 | 9.19502 | 1317 ft | 13 kts | 254° |
| 2026-05-07 09:55 | 48.68828 | 9.19387 | 1319 ft | 11 kts | 333° |
| 2026-05-07 09:56 | 48.68873 | 9.19363 | 1321 ft | 3 kts | 346° |
| 2026-05-07 09:56 | 48.68880 | 9.19361 | 1321 ft | 0 kts | 344° |